sensor_id;sensor_type;location;lat;lon;timestamp;temperature;humidity
36856;DHT22;22788;51.434;6.786;2023-06-26T00:02:10;25.30;91.20
36856;DHT22;22788;51.434;6.786;2023-06-26T00:04:37;25.60;91.60
36856;DHT22;22788;51.434;6.786;2023-06-26T00:07:03;25.40;91.60
36856;DHT22;22788;51.434;6.786;2023-06-26T00:09:29;25.20;91.50
36856;DHT22;22788;51.434;6.786;2023-06-26T00:11:54;25.20;91.20
36856;DHT22;22788;51.434;6.786;2023-06-26T00:14:20;25.20;91.60
36856;DHT22;22788;51.434;6.786;2023-06-26T00:16:45;25.30;91.70
36856;DHT22;22788;51.434;6.786;2023-06-26T00:19:11;25.20;91.70
36856;DHT22;22788;51.434;6.786;2023-06-26T00:21:38;25.20;91.70
36856;DHT22;22788;51.434;6.786;2023-06-26T00:24:04;25.20;91.60
36856;DHT22;22788;51.434;6.786;2023-06-26T00:26:30;25.20;91.80
36856;DHT22;22788;51.434;6.786;2023-06-26T00:28:55;25.20;91.70
36856;DHT22;22788;51.434;6.786;2023-06-26T00:31:21;25.20;91.70
36856;DHT22;22788;51.434;6.786;2023-06-26T00:33:46;25.10;91.80
36856;DHT22;22788;51.434;6.786;2023-06-26T00:36:12;25.10;91.80
36856;DHT22;22788;51.434;6.786;2023-06-26T00:38:39;25.10;91.70
36856;DHT22;22788;51.434;6.786;2023-06-26T00:41:04;25.10;91.80
36856;DHT22;22788;51.434;6.786;2023-06-26T00:43:30;25.10;91.90
36856;DHT22;22788;51.434;6.786;2023-06-26T00:45:56;25.10;91.90
36856;DHT22;22788;51.434;6.786;2023-06-26T00:48:21;25.10;91.90
36856;DHT22;22788;51.434;6.786;2023-06-26T00:50:47;25.00;92.00
36856;DHT22;22788;51.434;6.786;2023-06-26T00:53:13;25.00;92.00
36856;DHT22;22788;51.434;6.786;2023-06-26T00:55:40;25.00;92.00
36856;DHT22;22788;51.434;6.786;2023-06-26T00:58:06;25.00;92.00
36856;DHT22;22788;51.434;6.786;2023-06-26T01:00:31;25.00;92.00
36856;DHT22;22788;51.434;6.786;2023-06-26T01:02:57;25.00;92.10
36856;DHT22;22788;51.434;6.786;2023-06-26T01:05:23;24.90;92.10
36856;DHT22;22788;51.434;6.786;2023-06-26T01:07:49;24.90;92.10
36856;DHT22;22788;51.434;6.786;2023-06-26T01:10:15;24.90;92.10
36856;DHT22;22788;51.434;6.786;2023-06-26T01:12:42;25.00;92.20
36856;DHT22;22788;51.434;6.786;2023-06-26T01:15:08;24.90;92.10
36856;DHT22;22788;51.434;6.786;2023-06-26T01:17:36;24.90;92.20
36856;DHT22;22788;51.434;6.786;2023-06-26T01:20:05;24.90;92.20
36856;DHT22;22788;51.434;6.786;2023-06-26T01:22:37;24.80;92.20
36856;DHT22;22788;51.434;6.786;2023-06-26T01:25:12;24.80;92.20
36856;DHT22;22788;51.434;6.786;2023-06-26T01:27:40;24.80;92.30
36856;DHT22;22788;51.434;6.786;2023-06-26T01:30:08;24.80;92.30
36856;DHT22;22788;51.434;6.786;2023-06-26T01:32:34;24.80;92.30
36856;DHT22;22788;51.434;6.786;2023-06-26T01:35:02;24.80;92.30
36856;DHT22;22788;51.434;6.786;2023-06-26T01:37:27;24.80;92.30
36856;DHT22;22788;51.434;6.786;2023-06-26T01:39:53;24.80;92.40
36856;DHT22;22788;51.434;6.786;2023-06-26T01:42:19;24.70;92.40
36856;DHT22;22788;51.434;6.786;2023-06-26T01:44:46;24.80;92.40
36856;DHT22;22788;51.434;6.786;2023-06-26T01:47:16;24.70;92.40
36856;DHT22;22788;51.434;6.786;2023-06-26T01:49:47;24.70;92.50
36856;DHT22;22788;51.434;6.786;2023-06-26T01:52:19;24.70;92.50
36856;DHT22;22788;51.434;6.786;2023-06-26T01:54:52;24.70;92.50
36856;DHT22;22788;51.434;6.786;2023-06-26T01:57:20;24.70;92.50
36856;DHT22;22788;51.434;6.786;2023-06-26T01:59:47;24.60;92.40
36856;DHT22;22788;51.434;6.786;2023-06-26T02:02:13;24.60;92.40
36856;DHT22;22788;51.434;6.786;2023-06-26T02:04:39;24.60;92.50
36856;DHT22;22788;51.434;6.786;2023-06-26T02:07:05;24.60;92.60
36856;DHT22;22788;51.434;6.786;2023-06-26T02:09:31;24.60;92.60
36856;DHT22;22788;51.434;6.786;2023-06-26T02:11:56;24.60;92.70
36856;DHT22;22788;51.434;6.786;2023-06-26T02:14:22;24.60;92.60
36856;DHT22;22788;51.434;6.786;2023-06-26T02:16:50;24.60;92.60
36856;DHT22;22788;51.434;6.786;2023-06-26T02:19:15;24.60;92.80
36856;DHT22;22788;51.434;6.786;2023-06-26T02:21:41;24.60;92.80
36856;DHT22;22788;51.434;6.786;2023-06-26T02:24:06;24.60;92.60
36856;DHT22;22788;51.434;6.786;2023-06-26T02:26:32;24.60;92.60
36856;DHT22;22788;51.434;6.786;2023-06-26T02:28:58;24.60;92.60
36856;DHT22;22788;51.434;6.786;2023-06-26T02:31:23;24.60;92.70
36856;DHT22;22788;51.434;6.786;2023-06-26T02:33:50;24.50;92.60
36856;DHT22;22788;51.434;6.786;2023-06-26T02:36:16;24.50;92.70
36856;DHT22;22788;51.434;6.786;2023-06-26T02:38:41;24.50;92.90
36856;DHT22;22788;51.434;6.786;2023-06-26T02:41:07;24.50;92.70
36856;DHT22;22788;51.434;6.786;2023-06-26T02:43:32;24.50;92.70
36856;DHT22;22788;51.434;6.786;2023-06-26T02:45:58;24.50;92.70
36856;DHT22;22788;51.434;6.786;2023-06-26T02:48:24;24.50;92.70
36856;DHT22;22788;51.434;6.786;2023-06-26T02:50:51;24.50;92.70
36856;DHT22;22788;51.434;6.786;2023-06-26T02:53:16;24.50;92.70
36856;DHT22;22788;51.434;6.786;2023-06-26T02:55:42;24.50;92.80
36856;DHT22;22788;51.434;6.786;2023-06-26T02:58:08;24.50;92.80
36856;DHT22;22788;51.434;6.786;2023-06-26T03:00:33;24.50;92.80
36856;DHT22;22788;51.434;6.786;2023-06-26T03:02:59;24.40;92.80
36856;DHT22;22788;51.434;6.786;2023-06-26T03:05:24;24.40;92.90
36856;DHT22;22788;51.434;6.786;2023-06-26T03:07:51;24.40;92.80
36856;DHT22;22788;51.434;6.786;2023-06-26T03:10:17;24.40;92.80
36856;DHT22;22788;51.434;6.786;2023-06-26T03:12:43;24.40;92.80
36856;DHT22;22788;51.434;6.786;2023-06-26T03:15:09;24.40;92.90
36856;DHT22;22788;51.434;6.786;2023-06-26T03:17:34;24.40;92.90
36856;DHT22;22788;51.434;6.786;2023-06-26T03:20:00;24.40;92.90
36856;DHT22;22788;51.434;6.786;2023-06-26T03:22:25;24.40;93.00
36856;DHT22;22788;51.434;6.786;2023-06-26T03:24:52;24.30;93.00
36856;DHT22;22788;51.434;6.786;2023-06-26T03:27:18;24.30;93.10
36856;DHT22;22788;51.434;6.786;2023-06-26T03:29:44;24.30;93.00
36856;DHT22;22788;51.434;6.786;2023-06-26T03:32:09;24.30;93.10
36856;DHT22;22788;51.434;6.786;2023-06-26T03:34:35;24.30;93.00
36856;DHT22;22788;51.434;6.786;2023-06-26T03:37:00;24.20;93.00
36856;DHT22;22788;51.434;6.786;2023-06-26T03:39:26;24.30;93.20
36856;DHT22;22788;51.434;6.786;2023-06-26T03:41:53;24.20;93.10
36856;DHT22;22788;51.434;6.786;2023-06-26T03:44:18;24.20;93.00
36856;DHT22;22788;51.434;6.786;2023-06-26T03:46:44;24.20;93.20
36856;DHT22;22788;51.434;6.786;2023-06-26T03:49:10;24.10;93.00
36856;DHT22;22788;51.434;6.786;2023-06-26T03:51:35;24.10;93.30
36856;DHT22;22788;51.434;6.786;2023-06-26T03:54:01;24.10;92.80
36856;DHT22;22788;51.434;6.786;2023-06-26T03:56:27;24.00;92.90
36856;DHT22;22788;51.434;6.786;2023-06-26T03:58:54;24.00;93.30
36856;DHT22;22788;51.434;6.786;2023-06-26T04:01:19;24.00;93.20
36856;DHT22;22788;51.434;6.786;2023-06-26T04:03:45;24.10;93.20
36856;DHT22;22788;51.434;6.786;2023-06-26T04:06:11;24.00;93.20
36856;DHT22;22788;51.434;6.786;2023-06-26T04:08:36;24.00;93.30
36856;DHT22;22788;51.434;6.786;2023-06-26T04:11:02;24.00;92.80
36856;DHT22;22788;51.434;6.786;2023-06-26T04:13:27;24.00;92.70
36856;DHT22;22788;51.434;6.786;2023-06-26T04:15:54;24.00;93.00
36856;DHT22;22788;51.434;6.786;2023-06-26T04:18:20;24.00;93.30
36856;DHT22;22788;51.434;6.786;2023-06-26T04:21:04;24.00;92.50
36856;DHT22;22788;51.434;6.786;2023-06-26T04:23:30;24.00;93.30
36856;DHT22;22788;51.434;6.786;2023-06-26T04:25:55;23.90;92.50
36856;DHT22;22788;51.434;6.786;2023-06-26T04:28:21;23.90;92.70
36856;DHT22;22788;51.434;6.786;2023-06-26T04:30:47;23.90;93.10
36856;DHT22;22788;51.434;6.786;2023-06-26T04:33:13;23.80;92.50
36856;DHT22;22788;51.434;6.786;2023-06-26T04:35:39;23.80;93.40
36856;DHT22;22788;51.434;6.786;2023-06-26T04:38:05;23.50;93.30
36856;DHT22;22788;51.434;6.786;2023-06-26T04:40:30;23.90;93.40
36856;DHT22;22788;51.434;6.786;2023-06-26T04:42:56;23.90;93.20
36856;DHT22;22788;51.434;6.786;2023-06-26T04:45:21;24.30;93.60
36856;DHT22;22788;51.434;6.786;2023-06-26T04:47:47;23.90;93.40
36856;DHT22;22788;51.434;6.786;2023-06-26T04:50:17;24.00;93.50
36856;DHT22;22788;51.434;6.786;2023-06-26T04:52:42;24.00;93.40
36856;DHT22;22788;51.434;6.786;2023-06-26T04:55:08;23.90;93.50
36856;DHT22;22788;51.434;6.786;2023-06-26T04:57:33;24.00;93.80
36856;DHT22;22788;51.434;6.786;2023-06-26T04:59:59;24.00;93.60
36856;DHT22;22788;51.434;6.786;2023-06-26T05:02:24;24.00;93.60
36856;DHT22;22788;51.434;6.786;2023-06-26T05:04:50;24.00;93.70
36856;DHT22;22788;51.434;6.786;2023-06-26T05:07:17;24.00;93.90
36856;DHT22;22788;51.434;6.786;2023-06-26T05:09:43;24.00;93.80
36856;DHT22;22788;51.434;6.786;2023-06-26T05:12:08;24.00;94.30
36856;DHT22;22788;51.434;6.786;2023-06-26T05:14:34;23.90;94.10
36856;DHT22;22788;51.434;6.786;2023-06-26T05:16:59;23.90;94.00
36856;DHT22;22788;51.434;6.786;2023-06-26T05:19:25;23.90;94.00
36856;DHT22;22788;51.434;6.786;2023-06-26T05:21:51;23.80;94.10
36856;DHT22;22788;51.434;6.786;2023-06-26T05:24:19;23.80;94.30
36856;DHT22;22788;51.434;6.786;2023-06-26T05:26:45;23.80;94.20
36856;DHT22;22788;51.434;6.786;2023-06-26T05:29:11;23.90;94.60
36856;DHT22;22788;51.434;6.786;2023-06-26T05:31:40;23.80;94.70
36856;DHT22;22788;51.434;6.786;2023-06-26T05:34:07;23.80;94.30
36856;DHT22;22788;51.434;6.786;2023-06-26T05:36:36;23.80;94.20
36856;DHT22;22788;51.434;6.786;2023-06-26T05:39:01;23.80;94.30
36856;DHT22;22788;51.434;6.786;2023-06-26T05:41:29;23.80;94.20
36856;DHT22;22788;51.434;6.786;2023-06-26T05:43:55;23.80;94.20
36856;DHT22;22788;51.434;6.786;2023-06-26T05:46:20;23.80;94.20
36856;DHT22;22788;51.434;6.786;2023-06-26T05:48:46;23.80;94.10
36856;DHT22;22788;51.434;6.786;2023-06-26T05:51:12;23.70;94.10
36856;DHT22;22788;51.434;6.786;2023-06-26T05:53:38;23.70;94.40
36856;DHT22;22788;51.434;6.786;2023-06-26T05:56:04;23.70;94.30
36856;DHT22;22788;51.434;6.786;2023-06-26T05:58:32;23.70;94.40
36856;DHT22;22788;51.434;6.786;2023-06-26T06:00:58;23.70;94.30
36856;DHT22;22788;51.434;6.786;2023-06-26T06:03:24;23.80;94.30
36856;DHT22;22788;51.434;6.786;2023-06-26T06:05:49;23.80;94.50
36856;DHT22;22788;51.434;6.786;2023-06-26T06:08:15;23.70;94.30
36856;DHT22;22788;51.434;6.786;2023-06-26T06:10:40;23.70;94.40
36856;DHT22;22788;51.434;6.786;2023-06-26T06:13:06;23.70;94.60
36856;DHT22;22788;51.434;6.786;2023-06-26T06:15:33;23.70;94.30
36856;DHT22;22788;51.434;6.786;2023-06-26T06:17:59;23.70;94.70
36856;DHT22;22788;51.434;6.786;2023-06-26T06:20:25;23.70;94.50
36856;DHT22;22788;51.434;6.786;2023-06-26T06:22:50;23.70;94.70
36856;DHT22;22788;51.434;6.786;2023-06-26T06:25:16;23.70;94.60
36856;DHT22;22788;51.434;6.786;2023-06-26T06:27:42;23.70;94.60
36856;DHT22;22788;51.434;6.786;2023-06-26T06:30:08;23.70;94.90
36856;DHT22;22788;51.434;6.786;2023-06-26T06:32:36;23.60;94.90
36856;DHT22;22788;51.434;6.786;2023-06-26T06:35:01;23.60;95.20
36856;DHT22;22788;51.434;6.786;2023-06-26T06:37:27;23.50;95.10
36856;DHT22;22788;51.434;6.786;2023-06-26T06:39:52;23.50;95.50
36856;DHT22;22788;51.434;6.786;2023-06-26T06:42:18;23.40;95.70
36856;DHT22;22788;51.434;6.786;2023-06-26T06:44:43;23.40;95.30
36856;DHT22;22788;51.434;6.786;2023-06-26T06:47:09;23.50;95.40
36856;DHT22;22788;51.434;6.786;2023-06-26T06:49:36;23.60;96.10
36856;DHT22;22788;51.434;6.786;2023-06-26T06:52:02;23.60;95.60
36856;DHT22;22788;51.434;6.786;2023-06-26T06:54:27;23.60;95.90
36856;DHT22;22788;51.434;6.786;2023-06-26T06:56:53;23.70;95.60
36856;DHT22;22788;51.434;6.786;2023-06-26T06:59:19;23.70;95.50
36856;DHT22;22788;51.434;6.786;2023-06-26T07:01:44;23.70;95.10
36856;DHT22;22788;51.434;6.786;2023-06-26T07:04:10;23.70;95.40
36856;DHT22;22788;51.434;6.786;2023-06-26T07:06:37;23.70;95.50
36856;DHT22;22788;51.434;6.786;2023-06-26T07:09:02;23.70;95.70
36856;DHT22;22788;51.434;6.786;2023-06-26T07:11:28;23.70;95.70
36856;DHT22;22788;51.434;6.786;2023-06-26T07:13:55;23.60;95.60
36856;DHT22;22788;51.434;6.786;2023-06-26T07:16:21;23.60;95.90
36856;DHT22;22788;51.434;6.786;2023-06-26T07:18:46;23.60;95.80
36856;DHT22;22788;51.434;6.786;2023-06-26T07:21:12;23.60;95.90
36856;DHT22;22788;51.434;6.786;2023-06-26T07:23:39;23.60;95.80
36856;DHT22;22788;51.434;6.786;2023-06-26T07:26:04;23.60;95.40
36856;DHT22;22788;51.434;6.786;2023-06-26T07:28:30;23.70;95.50
36856;DHT22;22788;51.434;6.786;2023-06-26T07:30:56;23.70;96.60
36856;DHT22;22788;51.434;6.786;2023-06-26T07:33:21;23.70;95.90
36856;DHT22;22788;51.434;6.786;2023-06-26T07:35:47;23.70;95.60
36856;DHT22;22788;51.434;6.786;2023-06-26T07:38:12;23.70;96.50
36856;DHT22;22788;51.434;6.786;2023-06-26T07:40:39;23.60;96.70
36856;DHT22;22788;51.434;6.786;2023-06-26T07:43:05;23.60;96.90
36856;DHT22;22788;51.434;6.786;2023-06-26T07:45:30;23.60;96.40
36856;DHT22;22788;51.434;6.786;2023-06-26T07:47:56;23.60;96.30
36856;DHT22;22788;51.434;6.786;2023-06-26T07:50:22;23.60;95.80
36856;DHT22;22788;51.434;6.786;2023-06-26T07:52:47;23.60;96.10
36856;DHT22;22788;51.434;6.786;2023-06-26T07:55:13;23.60;95.80
36856;DHT22;22788;51.434;6.786;2023-06-26T07:57:40;23.70;95.90
36856;DHT22;22788;51.434;6.786;2023-06-26T08:00:07;23.70;96.80
36856;DHT22;22788;51.434;6.786;2023-06-26T08:02:32;23.70;96.70
36856;DHT22;22788;51.434;6.786;2023-06-26T08:04:58;23.70;96.70
36856;DHT22;22788;51.434;6.786;2023-06-26T08:07:24;23.70;96.30
36856;DHT22;22788;51.434;6.786;2023-06-26T08:09:49;23.70;96.30
36856;DHT22;22788;51.434;6.786;2023-06-26T08:12:15;23.70;95.90
36856;DHT22;22788;51.434;6.786;2023-06-26T08:14:42;23.70;95.80
36856;DHT22;22788;51.434;6.786;2023-06-26T08:17:07;23.70;96.10
36856;DHT22;22788;51.434;6.786;2023-06-26T08:19:33;23.70;95.90
36856;DHT22;22788;51.434;6.786;2023-06-26T08:21:58;23.80;95.50
36856;DHT22;22788;51.434;6.786;2023-06-26T08:24:24;23.80;95.70
36856;DHT22;22788;51.434;6.786;2023-06-26T08:26:50;23.80;96.00
36856;DHT22;22788;51.434;6.786;2023-06-26T08:29:15;23.80;95.70
36856;DHT22;22788;51.434;6.786;2023-06-26T08:31:43;23.80;95.90
36856;DHT22;22788;51.434;6.786;2023-06-26T08:34:09;23.80;96.30
36856;DHT22;22788;51.434;6.786;2023-06-26T08:36:35;23.60;96.50
36856;DHT22;22788;51.434;6.786;2023-06-26T08:39:00;23.60;97.00
36856;DHT22;22788;51.434;6.786;2023-06-26T08:41:26;23.70;96.10
36856;DHT22;22788;51.434;6.786;2023-06-26T08:43:52;23.70;96.20
36856;DHT22;22788;51.434;6.786;2023-06-26T08:46:17;23.70;96.80
36856;DHT22;22788;51.434;6.786;2023-06-26T08:48:48;23.80;96.40
36856;DHT22;22788;51.434;6.786;2023-06-26T08:51:17;23.80;95.70
36856;DHT22;22788;51.434;6.786;2023-06-26T08:53:48;23.80;95.60
36856;DHT22;22788;51.434;6.786;2023-06-26T08:56:17;23.80;96.00
36856;DHT22;22788;51.434;6.786;2023-06-26T08:58:43;23.80;95.80
36856;DHT22;22788;51.434;6.786;2023-06-26T09:01:09;23.80;95.50
36856;DHT22;22788;51.434;6.786;2023-06-26T09:03:36;23.80;95.60
36856;DHT22;22788;51.434;6.786;2023-06-26T09:06:03;23.80;96.10
36856;DHT22;22788;51.434;6.786;2023-06-26T09:08:28;23.80;96.10
36856;DHT22;22788;51.434;6.786;2023-06-26T09:10:54;23.80;95.70
36856;DHT22;22788;51.434;6.786;2023-06-26T09:13:20;23.80;95.80
36856;DHT22;22788;51.434;6.786;2023-06-26T09:15:46;23.70;95.50
36856;DHT22;22788;51.434;6.786;2023-06-26T09:18:12;23.70;96.10
36856;DHT22;22788;51.434;6.786;2023-06-26T09:20:37;23.70;95.40
36856;DHT22;22788;51.434;6.786;2023-06-26T09:23:05;23.70;95.10
36856;DHT22;22788;51.434;6.786;2023-06-26T09:25:30;23.80;95.30
36856;DHT22;22788;51.434;6.786;2023-06-26T09:27:56;23.80;95.60
36856;DHT22;22788;51.434;6.786;2023-06-26T09:30:22;23.90;95.20
36856;DHT22;22788;51.434;6.786;2023-06-26T09:32:47;23.90;95.60
36856;DHT22;22788;51.434;6.786;2023-06-26T09:35:13;24.00;95.90
36856;DHT22;22788;51.434;6.786;2023-06-26T09:37:39;24.00;95.50
36856;DHT22;22788;51.434;6.786;2023-06-26T09:40:07;24.10;94.90
36856;DHT22;22788;51.434;6.786;2023-06-26T09:42:33;24.10;94.80
36856;DHT22;22788;51.434;6.786;2023-06-26T09:45:00;24.10;95.00
36856;DHT22;22788;51.434;6.786;2023-06-26T09:47:25;24.10;94.90
36856;DHT22;22788;51.434;6.786;2023-06-26T09:49:51;24.10;94.80
36856;DHT22;22788;51.434;6.786;2023-06-26T09:52:18;24.10;94.40
36856;DHT22;22788;51.434;6.786;2023-06-26T09:54:43;24.10;93.80
36856;DHT22;22788;51.434;6.786;2023-06-26T09:57:12;24.10;93.70
36856;DHT22;22788;51.434;6.786;2023-06-26T09:59:38;24.10;93.40
36856;DHT22;22788;51.434;6.786;2023-06-26T10:02:04;24.10;94.30
36856;DHT22;22788;51.434;6.786;2023-06-26T10:04:30;24.10;92.50
36856;DHT22;22788;51.434;6.786;2023-06-26T10:06:56;24.10;93.60
36856;DHT22;22788;51.434;6.786;2023-06-26T10:09:24;24.20;92.60
36856;DHT22;22788;51.434;6.786;2023-06-26T10:11:53;24.30;94.10
36856;DHT22;22788;51.434;6.786;2023-06-26T10:14:26;24.30;93.80
36856;DHT22;22788;51.434;6.786;2023-06-26T10:16:53;24.30;94.00
36856;DHT22;22788;51.434;6.786;2023-06-26T10:19:22;24.30;93.80
36856;DHT22;22788;51.434;6.786;2023-06-26T10:21:49;24.30;92.80
36856;DHT22;22788;51.434;6.786;2023-06-26T10:24:16;24.30;91.30
36856;DHT22;22788;51.434;6.786;2023-06-26T10:26:44;24.20;92.80
36856;DHT22;22788;51.434;6.786;2023-06-26T10:29:11;24.30;92.90
36856;DHT22;22788;51.434;6.786;2023-06-26T10:31:39;24.40;93.20
36856;DHT22;22788;51.434;6.786;2023-06-26T10:34:05;24.40;92.80
36856;DHT22;22788;51.434;6.786;2023-06-26T10:36:31;24.50;93.80
36856;DHT22;22788;51.434;6.786;2023-06-26T10:38:58;24.50;93.30
36856;DHT22;22788;51.434;6.786;2023-06-26T10:41:25;24.60;93.40
36856;DHT22;22788;51.434;6.786;2023-06-26T10:43:51;24.50;92.90
36856;DHT22;22788;51.434;6.786;2023-06-26T10:46:18;24.40;92.30
36856;DHT22;22788;51.434;6.786;2023-06-26T10:48:58;24.40;93.40
36856;DHT22;22788;51.434;6.786;2023-06-26T10:51:24;24.30;93.70
36856;DHT22;22788;51.434;6.786;2023-06-26T10:53:53;24.40;91.20
36856;DHT22;22788;51.434;6.786;2023-06-26T10:56:19;24.40;92.30
36856;DHT22;22788;51.434;6.786;2023-06-26T10:58:44;24.60;91.00
36856;DHT22;22788;51.434;6.786;2023-06-26T11:01:21;24.60;91.60
36856;DHT22;22788;51.434;6.786;2023-06-26T11:03:48;24.60;90.90
36856;DHT22;22788;51.434;6.786;2023-06-26T11:06:18;24.60;88.40
36856;DHT22;22788;51.434;6.786;2023-06-26T11:08:44;24.60;90.50
36856;DHT22;22788;51.434;6.786;2023-06-26T11:11:10;24.60;91.50
36856;DHT22;22788;51.434;6.786;2023-06-26T11:13:36;24.60;90.20
36856;DHT22;22788;51.434;6.786;2023-06-26T11:16:02;24.50;90.40
36856;DHT22;22788;51.434;6.786;2023-06-26T11:18:29;24.60;89.60
36856;DHT22;22788;51.434;6.786;2023-06-26T11:21:04;24.60;89.50
36856;DHT22;22788;51.434;6.786;2023-06-26T11:23:32;24.60;87.70
36856;DHT22;22788;51.434;6.786;2023-06-26T11:26:13;24.70;88.70
36856;DHT22;22788;51.434;6.786;2023-06-26T11:28:38;24.80;89.80
36856;DHT22;22788;51.434;6.786;2023-06-26T11:31:04;24.60;90.10
36856;DHT22;22788;51.434;6.786;2023-06-26T11:33:29;24.60;90.40
36856;DHT22;22788;51.434;6.786;2023-06-26T11:35:55;24.60;90.40
36856;DHT22;22788;51.434;6.786;2023-06-26T11:38:21;24.50;85.30
36856;DHT22;22788;51.434;6.786;2023-06-26T11:40:48;24.50;86.60
36856;DHT22;22788;51.434;6.786;2023-06-26T11:43:14;24.60;87.50
36856;DHT22;22788;51.434;6.786;2023-06-26T11:45:39;24.60;88.20
36856;DHT22;22788;51.434;6.786;2023-06-26T11:48:05;24.60;82.50
36856;DHT22;22788;51.434;6.786;2023-06-26T11:50:31;24.60;83.70
36856;DHT22;22788;51.434;6.786;2023-06-26T11:52:57;24.60;80.90
36856;DHT22;22788;51.434;6.786;2023-06-26T11:55:24;24.60;81.70
36856;DHT22;22788;51.434;6.786;2023-06-26T11:57:53;24.60;83.80
36856;DHT22;22788;51.434;6.786;2023-06-26T12:00:20;24.70;87.00
36856;DHT22;22788;51.434;6.786;2023-06-26T12:02:46;24.70;85.30
36856;DHT22;22788;51.434;6.786;2023-06-26T12:05:12;24.70;84.70
36856;DHT22;22788;51.434;6.786;2023-06-26T12:07:38;24.70;80.20
36856;DHT22;22788;51.434;6.786;2023-06-26T12:10:05;24.60;79.90
36856;DHT22;22788;51.434;6.786;2023-06-26T12:12:31;24.50;77.60
36856;DHT22;22788;51.434;6.786;2023-06-26T12:14:59;24.50;81.30
36856;DHT22;22788;51.434;6.786;2023-06-26T12:17:24;24.50;75.10
36856;DHT22;22788;51.434;6.786;2023-06-26T12:19:50;24.60;77.00
36856;DHT22;22788;51.434;6.786;2023-06-26T12:22:17;24.70;74.00
36856;DHT22;22788;51.434;6.786;2023-06-26T12:24:43;24.80;76.30
36856;DHT22;22788;51.434;6.786;2023-06-26T12:27:10;24.90;73.10
36856;DHT22;22788;51.434;6.786;2023-06-26T12:29:37;24.90;82.80
36856;DHT22;22788;51.434;6.786;2023-06-26T12:32:07;24.80;79.30
36856;DHT22;22788;51.434;6.786;2023-06-26T12:34:34;24.80;80.30
36856;DHT22;22788;51.434;6.786;2023-06-26T12:37:01;24.70;78.50
36856;DHT22;22788;51.434;6.786;2023-06-26T12:39:27;24.80;79.10
36856;DHT22;22788;51.434;6.786;2023-06-26T12:41:54;24.90;84.20
36856;DHT22;22788;51.434;6.786;2023-06-26T12:44:21;24.90;75.00
36856;DHT22;22788;51.434;6.786;2023-06-26T12:46:48;24.90;76.70
36856;DHT22;22788;51.434;6.786;2023-06-26T12:49:15;24.90;77.60
36856;DHT22;22788;51.434;6.786;2023-06-26T12:51:41;24.80;73.90
36856;DHT22;22788;51.434;6.786;2023-06-26T12:54:06;24.80;72.50
36856;DHT22;22788;51.434;6.786;2023-06-26T12:56:32;24.80;73.20
36856;DHT22;22788;51.434;6.786;2023-06-26T12:58:58;24.90;81.90
36856;DHT22;22788;51.434;6.786;2023-06-26T13:01:23;24.80;76.40
36856;DHT22;22788;51.434;6.786;2023-06-26T13:03:49;24.80;77.30
36856;DHT22;22788;51.434;6.786;2023-06-26T13:06:16;24.80;71.90
36856;DHT22;22788;51.434;6.786;2023-06-26T13:08:41;24.80;73.10
36856;DHT22;22788;51.434;6.786;2023-06-26T13:11:07;24.80;72.10
36856;DHT22;22788;51.434;6.786;2023-06-26T13:13:33;24.90;71.00
36856;DHT22;22788;51.434;6.786;2023-06-26T13:15:58;25.00;74.60
36856;DHT22;22788;51.434;6.786;2023-06-26T13:18:24;25.10;79.40
36856;DHT22;22788;51.434;6.786;2023-06-26T13:20:49;25.10;73.30
36856;DHT22;22788;51.434;6.786;2023-06-26T13:23:16;25.10;72.40
36856;DHT22;22788;51.434;6.786;2023-06-26T13:25:42;25.20;77.00
36856;DHT22;22788;51.434;6.786;2023-06-26T13:28:08;25.30;75.10
36856;DHT22;22788;51.434;6.786;2023-06-26T13:30:33;25.40;73.90
36856;DHT22;22788;51.434;6.786;2023-06-26T13:32:59;25.40;72.20
36856;DHT22;22788;51.434;6.786;2023-06-26T13:35:24;25.40;74.60
36856;DHT22;22788;51.434;6.786;2023-06-26T13:37:50;25.30;73.30
36856;DHT22;22788;51.434;6.786;2023-06-26T13:40:17;25.30;73.50
36856;DHT22;22788;51.434;6.786;2023-06-26T13:42:42;25.20;72.80
36856;DHT22;22788;51.434;6.786;2023-06-26T13:45:09;25.20;69.20
36856;DHT22;22788;51.434;6.786;2023-06-26T13:47:35;25.30;78.00
36856;DHT22;22788;51.434;6.786;2023-06-26T13:50:00;25.20;70.80
36856;DHT22;22788;51.434;6.786;2023-06-26T13:52:26;25.20;71.40
36856;DHT22;22788;51.434;6.786;2023-06-26T13:54:51;25.20;69.40
36856;DHT22;22788;51.434;6.786;2023-06-26T13:57:18;25.30;77.60
36856;DHT22;22788;51.434;6.786;2023-06-26T13:59:44;25.40;68.70
36856;DHT22;22788;51.434;6.786;2023-06-26T14:02:10;25.60;71.10
36856;DHT22;22788;51.434;6.786;2023-06-26T14:04:35;25.50;70.10
36856;DHT22;22788;51.434;6.786;2023-06-26T14:07:01;25.40;75.40
36856;DHT22;22788;51.434;6.786;2023-06-26T14:09:26;25.30;73.70
36856;DHT22;22788;51.434;6.786;2023-06-26T14:11:52;25.20;75.80
36856;DHT22;22788;51.434;6.786;2023-06-26T14:14:19;25.30;72.40
36856;DHT22;22788;51.434;6.786;2023-06-26T14:16:45;25.30;70.30
36856;DHT22;22788;51.434;6.786;2023-06-26T14:19:10;25.30;75.60
36856;DHT22;22788;51.434;6.786;2023-06-26T14:21:36;25.30;73.60
36856;DHT22;22788;51.434;6.786;2023-06-26T14:24:01;25.40;70.10
36856;DHT22;22788;51.434;6.786;2023-06-26T14:26:27;25.50;71.10
36856;DHT22;22788;51.434;6.786;2023-06-26T14:28:52;25.50;71.10
36856;DHT22;22788;51.434;6.786;2023-06-26T14:31:20;25.50;67.50
36856;DHT22;22788;51.434;6.786;2023-06-26T14:33:45;25.40;65.90
36856;DHT22;22788;51.434;6.786;2023-06-26T14:36:11;25.30;68.00
36856;DHT22;22788;51.434;6.786;2023-06-26T14:38:36;25.30;66.30
36856;DHT22;22788;51.434;6.786;2023-06-26T14:41:02;25.30;66.90
36856;DHT22;22788;51.434;6.786;2023-06-26T14:43:27;25.20;68.40
36856;DHT22;22788;51.434;6.786;2023-06-26T14:45:53;25.20;70.90
36856;DHT22;22788;51.434;6.786;2023-06-26T14:48:20;25.10;68.90
36856;DHT22;22788;51.434;6.786;2023-06-26T14:50:45;25.10;73.60
36856;DHT22;22788;51.434;6.786;2023-06-26T14:53:11;25.10;72.40
36856;DHT22;22788;51.434;6.786;2023-06-26T14:55:37;25.10;68.90
36856;DHT22;22788;51.434;6.786;2023-06-26T14:58:02;25.10;74.70
36856;DHT22;22788;51.434;6.786;2023-06-26T15:00:28;25.10;75.70
36856;DHT22;22788;51.434;6.786;2023-06-26T15:02:54;25.20;71.80
36856;DHT22;22788;51.434;6.786;2023-06-26T15:05:21;25.20;64.20
36856;DHT22;22788;51.434;6.786;2023-06-26T15:07:46;25.20;64.40
36856;DHT22;22788;51.434;6.786;2023-06-26T15:10:12;25.20;72.00
36856;DHT22;22788;51.434;6.786;2023-06-26T15:12:37;25.20;70.40
36856;DHT22;22788;51.434;6.786;2023-06-26T15:15:04;25.10;72.60
36856;DHT22;22788;51.434;6.786;2023-06-26T15:17:29;25.00;73.30
36856;DHT22;22788;51.434;6.786;2023-06-26T15:19:55;25.00;68.90
36856;DHT22;22788;51.434;6.786;2023-06-26T15:22:22;24.90;71.00
36856;DHT22;22788;51.434;6.786;2023-06-26T15:24:48;24.80;69.80